Latest Weather Observations for Amberley

IDQ60801

Issued at 5:32 pm EST Thursday 5 March 2015 (issued every 30 minutes, with the page automatically refreshed every 10 minutes)

About weather observations | Map of weather stations | Latest weather observations for QLD | Other Formats
Station Details ID: 040004 Name: AMBERLEY AMO Lat: -27.63 Lon: 152.71 Height: 24.2 m
Data from the previous 72 hours. | See also: Recent months at Amberley
Date/Time
EST
Temp
°C
App
Temp
°C
Dew
Point
Rel
Hum
%
Delta-T
°C
Wind Press
QNH
hPa
Press
MSL
hPa
Rain
since 9 am
mm
Dir
 
Spd
km/h
Gust
km/h
Spd
kts
Gust
kts
05/05:00pm 36.0 36.3 17.1 32 12.2 S 11 15 6 8 1002.1 - 0.0
05/04:30pm 37.5 35.5 11.5 21 15.5 S 13 19 7 10 1001.8 - 0.0
05/04:00pm 37.5 38.2 15.7 27 13.8 W 6 19 3 10 1001.6 - 0.0
05/03:30pm 36.1 37.9 19.6 38 11.0 SSE 9 11 5 6 1001.7 - 0.0
05/03:00pm 36.2 39.4 20.5 40 10.6 N 4 9 2 5 1002.0 1001.9 0.0
05/02:30pm 36.0 38.9 21.7 43 9.8 N 9 17 5 9 1002.5 - 0.0
05/02:00pm 35.2 37.7 21.8 45 9.2 NW 11 19 6 10 1003.2 - 0.0
05/01:30pm 34.6 37.3 22.8 50 8.2 N 13 19 7 10 1003.7 - 0.0
05/01:00pm 34.1 36.8 22.8 51 7.8 N 13 17 7 9 1004.3 - 0.0
05/12:30pm 32.9 35.6 22.9 55 6.9 N 13 19 7 10 1005.2 - 0.0
05/12:00pm 32.3 34.0 22.4 56 6.8 NW 17 26 9 14 1005.7 1005.6 0.0
05/11:30am 31.6 33.2 22.1 57 6.5 NW 17 22 9 12 1006.4 - 0.0
05/11:00am 32.0 33.0 21.8 54 6.9 NNW 19 30 10 16 1006.9 - 0.0
05/10:00am 29.6 31.4 21.1 60 5.7 NW 13 20 7 11 1008.1 - 0.0
05/09:30am 28.5 30.2 21.0 64 5.0 NNW 13 19 7 10 1008.5 - 0.0
05/09:00am 27.7 29.6 21.4 68 4.2 NNW 13 17 7 9 1008.7 1008.6 0.0
05/08:30am 26.3 27.7 21.0 72 3.5 N 15 19 8 10 1008.8 - 0.0
05/08:00am 25.1 27.3 21.2 79 2.6 NNW 11 15 6 8 1009.0 - 0.0
05/06:30am 21.1 24.7 19.7 92 0.9 CALM 0 0 0 0 1008.9 - 0.0
05/05:30am 20.0 23.3 19.2 95 0.5 CALM 0 0 0 0 1008.5 - 0.0
05/05:00am 20.0 23.3 19.2 95 0.5 CALM 0 0 0 0 1008.2 - 0.0
05/04:30am 19.8 23.1 19.0 95 0.5 CALM 0 0 0 0 1008.3 - 0.0
05/04:00am 20.1 23.5 19.3 95 0.5 CALM 0 0 0 0 1008.4 - 0.0
05/03:00am 20.7 24.2 19.6 93 0.7 CALM 0 0 0 0 1008.6 1008.5 0.0
05/02:30am 20.4 23.9 19.5 95 0.6 CALM 0 0 0 0 1008.7 - 0.0
05/02:00am 20.7 24.2 19.6 93 0.7 CALM 0 0 0 0 1009.2 - 0.0
05/01:30am 21.0 24.5 19.6 92 0.9 CALM 0 0 0 0 1009.5 - 0.0
05/01:00am 21.1 24.7 19.7 92 0.9 CALM 0 0 0 0 1010.0 - 0.0
05/12:30am 21.4 25.0 19.8 91 1.0 CALM 0 0 0 0 1010.2 - 0.0
 
Date/Time
EST
Temp
°C
App
Temp
°C
Dew
Point
Rel
Hum
%
Delta-T
°C
Wind Press
QNH
hPa
Press
MSL
hPa
Rain
since 9 am
mm
Dir
 
Spd
km/h
Gust
km/h
Spd
kts
Gust
kts
04/11:30pm 23.1 26.7 19.7 81 2.2 CALM 0 0 0 0 1010.8 - 0.0
04/11:00pm 22.7 24.9 19.6 82 2.0 ESE 7 9 4 5 1011.0 - 0.0
04/10:30pm 23.8 25.9 19.3 76 2.9 E 7 9 4 5 1011.2 - 0.0
04/10:00pm 23.8 25.6 19.6 77 2.7 E 9 11 5 6 1011.3 - 0.0
04/09:30pm 24.0 25.4 19.5 76 2.9 E 11 13 6 7 1011.6 - 0.0
04/09:00pm 24.7 26.0 19.4 72 3.4 E 11 13 6 7 1011.6 1011.5 0.0
04/08:00pm 25.4 25.9 19.3 69 3.9 ENE 15 20 8 11 1011.4 - 0.0
04/07:30pm 25.8 26.2 19.1 66 4.3 ENE 15 19 8 10 1011.0 - 0.0
04/07:00pm 26.5 26.5 18.9 63 4.9 ENE 17 26 9 14 1010.7 - 0.0
04/06:30pm 27.1 26.7 18.8 60 5.3 ENE 19 26 10 14 1010.3 - 0.0
04/05:30pm 29.5 29.6 19.2 54 6.7 NE 17 20 9 11 1010.0 - 0.0
04/05:00pm 30.3 30.9 18.5 49 7.6 ENE 13 17 7 9 1009.9 - 0.0
04/04:30pm 31.4 32.3 16.1 39 9.6 NE 6 11 3 6 1009.9 - 0.0
04/04:00pm 31.4 32.6 16.9 41 9.2 NNE 6 11 3 6 1009.9 - 0.0
04/03:30pm 31.8 32.9 16.6 40 9.6 ENE 6 15 3 8 1010.0 - 0.0
04/03:00pm 31.0 31.0 16.3 41 9.2 NNE 11 17 6 9 1010.3 1010.2 0.0
04/02:30pm 31.0 32.4 17.7 45 8.5 E 7 11 4 6 1010.8 - 0.0
04/02:00pm 30.9 32.1 17.4 44 8.6 NW 7 13 4 7 1011.0 - 0.0
04/01:30pm 30.4 31.9 18.1 47 7.9 ESE 7 13 4 7 1011.7 - 0.0
04/01:00pm 29.9 30.6 18.0 48 7.6 ENE 11 17 6 9 1012.2 - 0.0
04/12:30pm 28.9 30.6 18.5 53 6.7 SSE 7 11 4 6 1012.6 - 0.0
04/12:00pm 28.6 29.7 18.1 53 6.7 N 9 15 5 8 1013.1 1013.0 0.0
04/11:30am 28.4 30.1 18.4 54 6.4 ENE 7 9 4 5 1013.6 - 0.0
04/11:00am 27.9 29.8 18.9 58 5.8 W 7 17 4 9 1014.0 - 0.0
04/10:30am 26.7 28.8 18.2 59 5.4 NNW 4 9 2 5 1014.4 - 0.0
04/10:00am 26.3 27.7 17.9 60 5.3 WNW 7 13 4 7 1014.6 - 0.0
04/09:30am 25.5 28.0 18.2 64 4.6 E 2 7 1 4 1014.7 - 0.0
04/09:00am 25.9 28.6 18.7 64 4.6 ESE 2 7 1 4 1014.8 1014.7 0.0
04/08:30am 25.5 28.8 19.1 67 4.1 CALM 0 0 0 0 1014.9 - 0.0
04/08:00am 23.9 26.5 19.2 75 3.0 SSE 4 9 2 5 1014.8 - 0.0
04/07:30am 23.1 25.7 19.2 79 2.5 S 4 7 2 4 1014.5 - 0.0
04/07:00am 22.4 25.8 19.4 83 1.9 CALM 0 0 0 0 1014.1 - 0.0
04/06:30am 20.1 23.5 19.3 95 0.5 CALM 0 0 0 0 1013.8 - 0.0
04/06:00am 19.5 22.6 18.7 95 0.5 CALM 0 0 0 0 1013.7 1013.6 0.0
04/05:30am 19.7 22.9 18.9 95 0.5 CALM 0 0 0 0 1013.4 - 0.0
04/05:00am 19.7 23.0 19.1 96 0.4 CALM 0 0 0 0 1013.2 - 0.0
04/04:30am 20.0 23.3 19.0 94 0.6 CALM 0 0 0 0 1013.2 - 0.0
04/04:00am 19.6 22.8 18.8 95 0.5 CALM 0 0 0 0 1012.9 - 0.0
04/03:53am 19.5 22.6 18.7 95 0.5 CALM 0 0 0 0 1012.8 - 0.0
04/03:34am 18.7 21.6 18.1 96 0.4 CALM 0 0 0 0 1012.9 - 0.0
04/03:30am 18.7 21.6 18.1 96 0.4 CALM 0 0 0 0 1012.8 - 0.0
04/03:00am 19.6 22.7 18.6 94 0.6 CALM 0 0 0 0 1013.1 1013.0 0.0
04/02:30am 19.7 22.8 18.7 94 0.6 CALM 0 0 0 0 1013.5 - 0.0
04/02:00am 19.5 22.5 18.5 94 0.6 CALM 0 0 0 0 1013.7 - 0.0
04/01:30am 20.3 23.6 19.0 92 0.8 CALM 0 0 0 0 1014.2 - 0.0
04/01:00am 20.7 24.0 19.1 90 1.0 CALM 0 0 0 0 1014.7 - 0.0
04/12:30am 21.1 24.4 19.2 89 1.2 CALM 0 0 0 0 1015.2 - 0.0
04/12:00am 21.2 24.4 18.8 86 1.5 CALM 0 4 0 2 1015.4 1015.3 0.0
 
Date/Time
EST
Temp
°C
App
Temp
°C
Dew
Point
Rel
Hum
%
Delta-T
°C
Wind Press
QNH
hPa
Press
MSL
hPa
Rain
since 9 am
mm
Dir
 
Spd
km/h
Gust
km/h
Spd
kts
Gust
kts
03/11:30pm 21.8 23.6 18.8 83 1.9 S 7 7 4 4 1015.6 - 0.0
03/11:00pm 22.4 24.1 18.6 79 2.4 ESE 7 7 4 4 1015.6 - 0.0
03/10:30pm 22.6 24.6 18.8 79 2.4 E 6 7 3 4 1015.4 - 0.0
03/10:00pm 22.7 23.8 18.9 79 2.4 ESE 11 13 6 7 1015.5 - 0.0
03/09:30pm 23.2 25.0 18.8 76 2.8 E 7 11 4 6 1015.5 - 0.0
03/09:00pm 24.0 25.5 18.8 72 3.3 ENE 9 13 5 7 1015.3 1015.2 0.0
03/08:30pm 24.4 24.6 18.6 70 3.7 ENE 15 19 8 10 1015.0 - 0.0
03/08:00pm 24.6 24.4 18.4 68 3.9 ENE 17 24 9 13 1014.6 - 0.0
03/07:30pm 25.2 24.7 18.6 67 4.2 ENE 19 28 10 15 1014.2 - 0.0
03/07:00pm 25.8 26.0 18.6 64 4.6 E 15 26 8 14 1013.8 - 0.0
03/06:30pm 26.4 25.6 18.4 61 5.1 ENE 20 30 11 16 1013.3 - 0.0
03/06:00pm 27.3 26.7 18.4 58 5.7 NE 19 28 10 15 1012.9 1012.8 0.0
03/05:30pm 28.3 27.5 18.5 55 6.3 NE 20 28 11 15 1012.6 - 0.0
03/05:00pm 29.7 28.9 17.2 47 7.9 ENE 17 20 9 11 1012.3 - 0.0
03/04:30pm 30.0 29.0 16.6 44 8.4 E 17 20 9 11 1012.0 - 0.0
03/04:00pm 29.7 29.4 16.4 44 8.3 ENE 13 19 7 10 1012.1 - 0.0
03/03:30pm 30.7 30.4 16.5 42 8.9 E 13 19 7 10 1012.0 - 0.0
03/03:00pm 30.7 31.4 17.1 44 8.6 NE 9 15 5 8 1012.1 1012.0 0.0
03/02:30pm 30.4 31.3 16.7 43 8.6 S 7 17 4 9 1012.3 - 0.0
03/02:00pm 29.8 31.0 17.3 47 7.9 SSW 7 15 4 8 1012.7 - 0.0
03/01:30pm 29.9 30.8 16.7 45 8.3 S 7 13 4 7 1013.3 - 0.0
03/01:00pm 29.6 30.4 17.3 47 7.8 SSW 9 13 5 7 1013.8 - 0.0
03/12:30pm 29.1 29.6 16.6 46 7.8 SSW 9 15 5 8 1014.2 - 0.0
03/12:00pm 29.4 29.8 16.4 45 8.1 S 9 15 5 8 1014.7 1014.6 0.0
03/11:30am 28.8 28.3 15.8 45 8.0 E 13 20 7 11 1014.9 - 0.0
03/11:00am 28.3 29.0 16.2 47 7.5 SE 7 15 4 8 1015.3 - 0.0
03/10:30am 28.1 28.2 16.5 49 7.2 SE 11 15 6 8 1015.9 - 0.0
03/10:00am 27.2 26.5 16.5 52 6.6 ESE 15 22 8 12 1016.1 - 0.0
03/09:30am 26.5 26.2 16.5 54 6.2 ESE 13 20 7 11 1016.2 - 0.0
03/09:00am 25.2 26.6 18.6 67 4.2 E 9 17 5 9 1016.0 1015.9 0.0
03/08:30am 25.4 27.5 19.3 69 3.9 S 7 11 4 6 1015.9 - 0.0
03/08:00am 24.2 27.0 19.7 76 2.9 SW 4 9 2 5 1015.8 - 0.0
03/07:30am 22.5 26.1 19.8 85 1.7 CALM 0 0 0 0 1015.6 - 0.0
03/07:00am 21.3 24.9 19.7 91 1.0 CALM 0 6 0 3 1015.3 - 0.0
03/06:30am 19.9 23.2 19.1 95 0.5 CALM 0 0 0 0 1015.2 - 0.0
03/06:00am 18.6 21.5 18.1 97 0.3 CALM 0 0 0 0 1015.0 1014.9 0.0
03/05:30am 18.6 21.4 17.9 96 0.4 CALM 0 0 0 0 1014.7 - 0.0
03/05:00am 18.5 21.3 18.0 97 0.3 CALM 0 0 0 0 1014.5 - 0.0
03/04:30am 19.0 22.0 18.4 96 0.4 CALM 0 0 0 0 1014.2 - 0.0
03/04:00am 18.8 21.7 18.2 96 0.4 CALM 0 0 0 0 1014.3 - 0.0
03/03:30am 19.3 22.2 18.3 94 0.6 CALM 0 0 0 0 1014.1 - 0.0
03/03:07am 20.1 23.2 18.7 92 0.9 CALM 0 0 0 0 1014.1 - 0.0
03/03:00am 19.7 22.8 18.7 94 0.6 CALM 0 0 0 0 1014.0 1013.9 0.0
03/02:37am 19.4 22.5 18.6 95 0.5 CALM 0 0 0 0 1014.0 - 0.0
03/02:30am 19.6 22.6 18.5 93 0.7 CALM 0 0 0 0 1014.0 - 0.0
03/02:00am 20.0 23.2 18.9 93 0.7 CALM 0 0 0 0 1014.1 - 0.0
03/01:30am 20.1 23.3 18.8 92 0.8 CALM 0 6 0 3 1014.7 - 0.0
03/01:00am 20.3 23.5 18.9 92 0.9 CALM 0 0 0 0 1014.7 - 0.0
03/12:30am 20.9 22.4 19.0 89 1.2 SSW 9 11 5 6 1015.0 - 0.0
03/12:00am 21.4 23.4 19.2 87 1.4 S 7 9 4 5 1015.3 1015.2 0.0
 
Date/Time
EST
Temp
°C
App
Temp
°C
Dew
Point
Rel
Hum
%
Delta-T
°C
Wind Press
QNH
hPa
Press
MSL
hPa
Rain
since 9 am
mm
Dir
 
Spd
km/h
Gust
km/h
Spd
kts
Gust
kts
02/11:30pm 21.3 23.2 18.9 86 1.5 S 7 11 4 6 1015.6 - 0.0
02/11:00pm 22.5 24.3 18.7 79 2.4 S 7 11 4 6 1015.6 - 0.0
02/10:30pm 22.8 24.6 18.8 78 2.5 SSE 7 9 4 5 1015.6 - 0.0
02/10:00pm 23.0 24.5 18.9 78 2.6 SE 9 13 5 7 1015.4 - 0.0
02/09:30pm 23.4 25.0 19.2 77 2.7 ESE 9 15 5 8 1015.4 - 0.0
02/09:00pm 23.9 24.3 19.0 74 3.1 SE 15 19 8 10 1015.3 1015.2 0.0
02/08:30pm 25.2 23.2 17.5 62 4.8 ESE 24 33 13 18 1015.1 - 0.0
02/08:00pm 25.5 26.2 18.9 67 4.2 ESE 13 17 7 9 1014.7 - 0.0
02/07:30pm 26.0 25.6 19.0 65 4.5 E 19 26 10 14 1014.1 - 0.0
02/07:00pm 26.1 26.3 19.3 66 4.4 E 17 24 9 13 1013.4 - 0.0
02/06:30pm 27.1 27.1 19.0 61 5.2 ESE 17 20 9 11 1012.8 - 0.0
02/06:00pm 27.9 29.3 18.7 57 5.9 SE 9 11 5 6 1012.3 1012.2 0.0

Other Formats:

Comma delimited format used in spreadsheet applications
http://www.bom.gov.au/fwo/IDQ60801/IDQ60801.94568.axf

JavaScript Object Notation format (JSON) in row-major order
http://www.bom.gov.au/fwo/IDQ60801/IDQ60801.94568.json